createdAt,value
2022-10-04T00:02:23.802Z,1.17
2022-10-04T00:04:57.781Z,1.30
2022-10-04T00:07:29.375Z,1.20
2022-10-04T00:09:59.937Z,1.65
2022-10-04T00:12:31.766Z,1.20
2022-10-04T00:15:04.019Z,1.40
2022-10-04T00:17:35.636Z,1.17
2022-10-04T00:20:05.050Z,1.10
2022-10-04T00:22:33.882Z,1.10
2022-10-04T00:25:22.656Z,1.33
2022-10-04T00:28:31.247Z,1.23
2022-10-04T00:31:15.878Z,1.15
2022-10-04T00:33:45.156Z,1.15
2022-10-04T00:36:46.616Z,1.20
2022-10-04T00:39:50.259Z,1.35
2022-10-04T00:42:47.923Z,1.45
2022-10-04T00:45:34.923Z,1.55
2022-10-04T00:48:21.922Z,1.20
2022-10-04T00:50:54.426Z,1.48
2022-10-04T00:53:28.793Z,1.20
2022-10-04T00:56:01.838Z,1.30
2022-10-04T00:58:35.194Z,1.17
2022-10-04T01:01:05.601Z,1.10
2022-10-04T01:03:39.418Z,1.20
2022-10-04T01:06:11.119Z,1.23
2022-10-04T01:08:41.912Z,1.10
2022-10-04T01:11:14.917Z,1.52
2022-10-04T01:13:48.111Z,1.10
2022-10-04T01:16:19.677Z,1.20
2022-10-04T01:18:49.248Z,1.20
2022-10-04T01:21:29.445Z,1.48
2022-10-04T01:24:22.422Z,1.42
2022-10-04T01:26:50.557Z,1.05
2022-10-04T01:29:20.105Z,1.35
2022-10-04T01:31:49.974Z,1.40
2022-10-04T01:34:20.019Z,1.40
2022-10-04T01:36:48.882Z,1.17
2022-10-04T01:39:19.631Z,1.10
2022-10-04T01:41:54.555Z,1.20
2022-10-04T01:46:56.502Z,1.20
2022-10-04T01:49:29.086Z,1.00
2022-10-04T01:52:00.925Z,1.10
2022-10-04T01:54:35.646Z,0.88
2022-10-04T01:57:11.642Z,1.38
2022-10-04T01:59:45.923Z,1.02
2022-10-04T02:02:22.885Z,1.35
2022-10-04T02:04:55.001Z,1.30
2022-10-04T02:07:24.030Z,1.13
2022-10-04T02:09:59.609Z,1.40
2022-10-04T02:12:28.981Z,1.00
2022-10-04T02:14:58.079Z,1.20
2022-10-04T02:17:31.041Z,1.38
2022-10-04T02:19:59.840Z,1.27
2022-10-04T02:22:27.977Z,1.20
2022-10-04T02:24:58.885Z,1.42
2022-10-04T02:27:31.269Z,1.30
2022-10-04T02:30:03.247Z,1.30
2022-10-04T02:32:50.321Z,0.98
2022-10-04T02:35:20.345Z,1.00
2022-10-04T02:37:50.254Z,0.85
2022-10-04T02:40:23.051Z,1.10
2022-10-04T02:42:59.674Z,1.10
2022-10-04T02:45:38.483Z,1.00
2022-10-04T02:48:18.627Z,1.30
2022-10-04T02:50:51.335Z,1.15
2022-10-04T02:53:26.535Z,1.33
2022-10-04T02:55:56.488Z,1.25
2022-10-04T02:58:26.908Z,1.08
2022-10-04T03:00:58.604Z,1.00
2022-10-04T03:03:28.624Z,1.40
2022-10-04T03:06:04.448Z,1.35
2022-10-04T03:08:36.609Z,1.33
2022-10-04T03:11:06.869Z,1.20
2022-10-04T03:13:37.177Z,1.17
2022-10-04T03:16:05.875Z,1.10
2022-10-04T03:18:36.113Z,1.20
2022-10-04T03:21:08.946Z,1.10
2022-10-04T03:23:37.438Z,1.10
2022-10-04T03:26:20.532Z,1.02
2022-10-04T03:28:48.828Z,1.48
2022-10-04T03:31:19.853Z,1.05
2022-10-04T03:33:48.547Z,1.25
2022-10-04T03:36:18.950Z,1.48
2022-10-04T03:38:48.965Z,0.82
2022-10-04T03:41:18.340Z,1.20
2022-10-04T03:43:49.401Z,1.38
2022-10-04T03:46:19.851Z,0.90
2022-10-04T03:48:51.954Z,1.20
2022-10-04T03:51:22.633Z,1.30
2022-10-04T03:53:53.382Z,1.23
2022-10-04T03:56:27.473Z,1.10
2022-10-04T03:58:56.434Z,1.20
2022-10-04T04:01:37.898Z,1.13
2022-10-04T04:04:17.360Z,1.30
2022-10-04T04:06:55.990Z,1.00
2022-10-04T04:09:27.584Z,1.20
2022-10-04T04:11:58.508Z,1.50
2022-10-04T04:14:28.029Z,1.20
2022-10-04T04:17:17.144Z,1.30
2022-10-04T04:19:46.215Z,1.05
2022-10-04T04:22:17.578Z,1.05
2022-10-04T04:24:46.742Z,1.10
2022-10-04T04:27:18.861Z,1.15
2022-10-04T04:29:51.727Z,1.00
2022-10-04T04:32:24.168Z,1.00
2022-10-04T04:34:53.973Z,1.10
2022-10-04T04:37:21.927Z,1.27
2022-10-04T04:39:54.861Z,1.20
2022-10-04T04:42:29.093Z,1.20
2022-10-04T04:45:00.914Z,1.10
2022-10-04T04:47:33.153Z,1.00
2022-10-04T04:50:07.241Z,1.20
2022-10-04T04:52:37.088Z,0.83
2022-10-04T04:55:06.688Z,1.20
2022-10-04T04:57:35.971Z,1.00
2022-10-04T05:00:04.629Z,1.40
2022-10-04T05:02:35.587Z,1.10
2022-10-04T05:05:21.792Z,1.10
2022-10-04T05:07:50.751Z,1.15
2022-10-04T05:10:29.809Z,0.93
2022-10-04T05:13:00.839Z,1.42
2022-10-04T05:15:33.451Z,1.00
2022-10-04T05:18:02.255Z,1.27
2022-10-04T05:20:31.472Z,1.00
2022-10-04T05:23:00.008Z,1.08
2022-10-04T05:25:33.245Z,1.10
2022-10-04T05:28:03.306Z,0.90
2022-10-04T05:30:44.565Z,1.08
2022-10-04T05:33:15.525Z,1.20
2022-10-04T05:35:59.166Z,1.02
2022-10-04T05:38:37.804Z,0.80
2022-10-04T05:41:10.097Z,1.10
2022-10-04T05:43:48.102Z,1.08
2022-10-04T05:46:22.750Z,0.98
2022-10-04T05:48:55.386Z,0.85
2022-10-04T05:51:27.602Z,1.05
2022-10-04T05:54:01.328Z,1.00
2022-10-04T05:56:54.880Z,1.00
2022-10-04T05:59:45.734Z,1.15
2022-10-04T06:02:25.395Z,1.05
2022-10-04T06:05:02.730Z,1.15
2022-10-04T06:07:35.561Z,0.80
2022-10-04T06:10:30.678Z,0.88
2022-10-04T06:13:03.228Z,1.00
2022-10-04T06:15:54.185Z,0.98
2022-10-04T06:18:45.288Z,1.30
2022-10-04T06:21:22.438Z,1.00
2022-10-04T06:23:57.915Z,1.38
2022-10-04T06:26:31.079Z,1.20
2022-10-04T06:29:02.085Z,0.90
2022-10-04T06:31:57.035Z,1.10
2022-10-04T06:34:51.838Z,1.10
2022-10-04T06:37:44.620Z,1.25
2022-10-04T06:40:43.150Z,1.10
2022-10-04T06:43:27.904Z,1.10
2022-10-04T06:46:18.299Z,1.17
2022-10-04T06:49:01.953Z,3.72
2022-10-04T06:51:44.114Z,3.80
2022-10-04T06:54:27.852Z,3.05
2022-10-04T06:57:21.330Z,2.40
2022-10-04T07:00:08.572Z,2.67
2022-10-04T07:02:41.712Z,2.30
2022-10-04T07:05:21.589Z,2.10
2022-10-04T07:08:06.476Z,1.70
2022-10-04T07:10:40.133Z,1.90
2022-10-04T07:13:33.091Z,1.90
2022-10-04T07:16:06.914Z,1.80
2022-10-04T07:18:38.799Z,1.80
2022-10-04T07:21:12.423Z,1.60
2022-10-04T07:23:47.662Z,1.80
2022-10-04T07:26:24.509Z,1.73
2022-10-04T07:29:12.981Z,1.52
2022-10-04T07:31:42.882Z,1.35
2022-10-04T07:34:15.659Z,1.70
2022-10-04T07:36:47.898Z,1.55
2022-10-04T07:39:18.273Z,1.58
2022-10-04T07:41:51.808Z,1.77
2022-10-04T07:44:30.616Z,1.58
2022-10-04T07:47:03.724Z,1.60
2022-10-04T07:49:39.344Z,1.23
2022-10-04T07:52:27.466Z,1.48
2022-10-04T07:55:02.100Z,1.40
2022-10-04T07:57:37.877Z,1.67
2022-10-04T08:00:13.979Z,1.45
2022-10-04T08:02:57.415Z,2.42
2022-10-04T08:05:30.266Z,1.80
2022-10-04T08:08:21.454Z,1.42
2022-10-04T08:11:00.684Z,1.65
2022-10-04T08:13:39.831Z,1.55
2022-10-04T08:16:23.668Z,1.65
2022-10-04T08:19:04.401Z,1.77
2022-10-04T08:21:43.092Z,2.10
2022-10-04T08:24:21.595Z,1.73
2022-10-04T08:27:06.869Z,2.05
2022-10-04T08:29:58.066Z,1.58
2022-10-04T08:32:42.750Z,1.55
2022-10-04T08:35:29.207Z,1.85
2022-10-04T08:38:16.754Z,1.90
2022-10-04T08:41:26.528Z,1.45
2022-10-04T08:44:38.099Z,1.70
2022-10-04T08:47:29.322Z,1.40
2022-10-04T08:50:28.714Z,1.40
2022-10-04T08:53:17.383Z,1.42
2022-10-04T08:56:06.028Z,1.60
2022-10-04T08:58:52.591Z,2.20
2022-10-04T09:02:00.091Z,1.60
2022-10-04T09:04:46.831Z,1.40
2022-10-04T09:07:47.905Z,1.40
2022-10-04T09:10:39.209Z,1.50
2022-10-04T09:13:38.651Z,1.30
2022-10-04T09:16:17.195Z,1.63
2022-10-04T09:19:21.625Z,1.52
2022-10-04T09:22:20.105Z,1.33
2022-10-04T09:25:22.561Z,1.80
2022-10-04T09:28:30.546Z,1.58
2022-10-04T09:31:26.160Z,1.33
2022-10-04T09:34:37.234Z,1.45
2022-10-04T09:37:29.101Z,1.48
2022-10-04T09:40:29.642Z,1.58
2022-10-04T09:43:19.416Z,1.40
2022-10-04T09:46:11.284Z,1.35
2022-10-04T09:48:44.876Z,1.35
2022-10-04T09:51:52.193Z,1.63
2022-10-04T09:54:51.613Z,1.30
2022-10-04T09:57:34.154Z,1.40
2022-10-04T10:00:24.497Z,1.60
2022-10-04T10:03:31.813Z,1.48
2022-10-04T10:06:27.206Z,1.35
2022-10-04T10:09:10.698Z,1.40
2022-10-04T10:12:05.144Z,1.23
2022-10-04T10:15:03.918Z,1.42
2022-10-04T10:17:41.518Z,1.50
2022-10-04T10:20:34.637Z,1.80
2022-10-04T10:23:22.616Z,1.38
2022-10-04T10:26:09.948Z,2.25
2022-10-04T10:29:13.170Z,1.50
2022-10-04T10:31:59.892Z,1.50
2022-10-04T10:34:53.186Z,1.45
2022-10-04T10:37:35.734Z,1.52
2022-10-04T10:40:42.624Z,1.55
2022-10-04T10:43:28.430Z,1.23
2022-10-04T10:46:06.144Z,3.35
2022-10-04T10:48:58.372Z,2.58
2022-10-04T10:51:51.218Z,3.28
2022-10-04T10:55:10.677Z,2.25
2022-10-04T10:58:15.404Z,3.85
2022-10-04T11:00:59.578Z,2.80
2022-10-04T11:04:19.108Z,3.75
2022-10-04T11:07:18.434Z,2.50
2022-10-04T11:10:23.666Z,2.30
2022-10-04T11:13:17.862Z,2.67
2022-10-04T11:16:13.053Z,3.30
2022-10-04T11:19:19.232Z,2.13
2022-10-04T11:25:06.184Z,2.22
2022-10-04T11:27:48.958Z,2.00
2022-10-04T11:30:23.339Z,2.05
2022-10-04T11:33:46.039Z,1.90
2022-10-04T11:36:34.002Z,1.80
2022-10-04T11:39:30.343Z,2.05
2022-10-04T11:42:07.718Z,2.20
2022-10-04T11:44:59.763Z,2.42
2022-10-04T11:47:43.061Z,2.50
2022-10-04T11:50:25.354Z,2.67
2022-10-04T11:53:29.836Z,4.07
2022-10-04T11:56:16.890Z,4.20
2022-10-04T11:58:56.307Z,4.80
2022-10-04T12:02:00.922Z,4.20
2022-10-04T12:05:01.541Z,4.03
2022-10-04T12:07:50.412Z,5.53
2022-10-04T12:10:28.603Z,5.63
2022-10-04T12:13:23.468Z,6.85
2022-10-04T12:16:13.078Z,9.13
2022-10-04T12:19:22.648Z,7.95
2022-10-04T12:22:06.604Z,9.38
2022-10-04T12:24:51.717Z,9.02
2022-10-04T12:27:48.889Z,9.38
2022-10-04T12:30:26.543Z,9.68
2022-10-04T12:33:07.973Z,8.55
2022-10-04T12:35:48.995Z,8.45
2022-10-04T12:38:42.848Z,7.82
2022-10-04T12:41:26.777Z,7.65
2022-10-04T12:44:03.210Z,7.75
2022-10-04T12:46:40.858Z,6.82
2022-10-04T12:49:26.089Z,7.68
2022-10-04T12:52:00.076Z,7.13
2022-10-04T12:54:37.540Z,6.07
2022-10-04T12:57:35.452Z,6.00
2022-10-04T13:00:14.381Z,4.95
2022-10-04T13:03:14.120Z,4.95
2022-10-04T13:05:51.370Z,5.07
2022-10-04T13:08:29.072Z,4.03
2022-10-04T13:11:20.609Z,4.45
2022-10-04T13:14:20.964Z,4.15
2022-10-04T13:19:56.837Z,3.58
2022-10-04T13:22:56.069Z,3.65
2022-10-04T13:26:04.514Z,2.97
2022-10-04T13:28:41.071Z,3.25
2022-10-04T13:31:14.087Z,3.50
2022-10-04T13:33:52.226Z,3.40
2022-10-04T13:36:25.261Z,3.40
2022-10-04T13:39:19.695Z,3.20
2022-10-04T13:42:10.136Z,3.10
2022-10-04T13:45:04.450Z,2.53
2022-10-04T13:47:52.282Z,3.00
2022-10-04T13:50:38.713Z,2.58
2022-10-04T13:53:40.659Z,2.67
2022-10-04T13:56:37.625Z,2.53
2022-10-04T13:59:17.146Z,2.90
2022-10-04T14:02:24.700Z,2.15
2022-10-04T14:05:38.773Z,2.67
2022-10-04T14:08:52.455Z,2.30
2022-10-04T14:11:49.234Z,2.25
2022-10-04T14:14:47.717Z,2.00
2022-10-04T14:17:34.929Z,2.40
2022-10-04T14:20:27.938Z,2.20
2022-10-04T14:23:10.881Z,1.95
2022-10-04T14:26:16.196Z,2.08
2022-10-04T14:29:16.314Z,2.33
2022-10-04T14:32:07.247Z,2.00
2022-10-04T14:35:03.274Z,2.03
2022-10-04T14:37:54.264Z,2.30
2022-10-04T14:40:44.473Z,1.90
2022-10-04T14:43:58.868Z,1.85
2022-10-04T14:46:43.480Z,1.80
2022-10-04T14:49:21.485Z,2.20
2022-10-04T14:52:18.236Z,2.08
2022-10-04T14:54:53.508Z,1.90
2022-10-04T14:57:28.674Z,2.08
2022-10-04T15:00:17.927Z,1.88
2022-10-04T15:03:20.605Z,1.92
2022-10-04T15:06:10.381Z,1.92
2022-10-04T15:09:10.752Z,2.00
2022-10-04T15:12:02.322Z,1.98
2022-10-04T15:14:39.652Z,2.35
2022-10-04T15:17:11.735Z,1.85
2022-10-04T15:20:02.604Z,1.80
2022-10-04T15:22:39.215Z,2.10
2022-10-04T15:25:43.775Z,1.70
2022-10-04T15:28:48.176Z,1.98
2022-10-04T15:31:23.805Z,1.88
2022-10-04T15:34:02.942Z,1.70
2022-10-04T15:37:08.040Z,1.75
2022-10-04T15:40:04.017Z,1.90
2022-10-04T15:42:35.322Z,1.75
2022-10-04T15:45:29.858Z,1.88
2022-10-04T15:48:11.525Z,1.70
2022-10-04T15:50:55.477Z,1.80
2022-10-04T15:53:50.259Z,1.83
2022-10-04T15:56:33.467Z,1.70
2022-10-04T15:59:39.035Z,2.40
2022-10-04T16:02:29.286Z,1.73
2022-10-04T16:05:16.900Z,1.85
2022-10-04T16:08:15.219Z,1.67
2022-10-04T16:11:04.172Z,1.60
2022-10-04T16:14:00.843Z,1.40
2022-10-04T16:17:09.704Z,1.33
2022-10-04T16:20:17.583Z,1.58
2022-10-04T16:23:18.681Z,1.77
2022-10-04T16:25:47.951Z,1.90
2022-10-04T16:28:44.870Z,1.58
2022-10-04T16:31:27.692Z,1.63
2022-10-04T16:34:01.968Z,1.60
2022-10-04T16:36:45.316Z,1.52
2022-10-04T16:39:48.934Z,1.90
2022-10-04T16:42:19.204Z,1.73
2022-10-04T16:44:53.449Z,2.00
2022-10-04T16:47:27.864Z,1.50
2022-10-04T16:49:57.707Z,1.50
2022-10-04T16:52:48.046Z,1.70
2022-10-04T16:55:51.398Z,1.75
2022-10-04T16:58:49.782Z,1.55
2022-10-04T17:02:14.107Z,1.58
2022-10-04T17:05:02.463Z,1.67
2022-10-04T17:07:43.589Z,1.70
2022-10-04T17:10:28.628Z,1.70
2022-10-04T17:13:07.287Z,1.48
2022-10-04T17:15:48.402Z,1.42
2022-10-04T17:18:31.255Z,1.55
2022-10-04T17:21:02.561Z,1.60
2022-10-04T17:23:52.760Z,1.20
2022-10-04T17:26:37.150Z,1.75
2022-10-04T17:29:24.241Z,1.50
2022-10-04T17:31:58.714Z,1.60
2022-10-04T17:34:40.947Z,1.50
2022-10-04T17:37:21.848Z,1.45
2022-10-04T17:39:54.415Z,1.50
2022-10-04T17:42:30.265Z,1.60
2022-10-04T17:45:15.315Z,1.27
2022-10-04T17:48:06.966Z,1.50
2022-10-04T17:50:59.907Z,1.48
2022-10-04T17:53:48.235Z,1.35
2022-10-04T17:56:29.637Z,1.73
2022-10-04T17:59:00.086Z,1.70
2022-10-04T18:01:31.788Z,1.83
2022-10-04T18:04:08.899Z,1.60
2022-10-04T18:06:43.533Z,1.60
2022-10-04T18:11:51.078Z,1.85
2022-10-04T18:14:39.461Z,1.48
2022-10-04T18:17:11.268Z,1.58
2022-10-04T18:20:00.801Z,1.38
2022-10-04T18:22:46.414Z,1.65
2022-10-04T18:25:16.492Z,1.73
2022-10-04T18:27:53.676Z,1.92
2022-10-04T18:30:22.560Z,1.60
2022-10-04T18:32:53.076Z,1.38
2022-10-04T18:35:26.961Z,1.60
2022-10-04T18:37:59.299Z,1.65
2022-10-04T18:40:33.110Z,1.88
2022-10-04T18:43:02.053Z,1.58
2022-10-04T18:45:31.458Z,1.60
2022-10-04T18:48:01.812Z,1.83
2022-10-04T18:50:35.861Z,1.52
2022-10-04T18:53:21.818Z,1.47
2022-10-04T18:55:58.300Z,1.67
2022-10-04T18:59:07.853Z,1.35
2022-10-04T19:02:03.269Z,1.45
2022-10-04T19:04:48.546Z,1.55
2022-10-04T19:07:19.320Z,1.58
2022-10-04T19:10:16.845Z,1.60
2022-10-04T19:13:03.981Z,1.60
2022-10-04T19:15:52.493Z,1.40
2022-10-04T19:18:36.771Z,1.50
2022-10-04T19:21:15.960Z,1.73
2022-10-04T19:23:57.712Z,1.30
2022-10-04T19:26:33.253Z,1.58
2022-10-04T19:29:11.641Z,2.28
2022-10-04T19:31:49.670Z,1.48
2022-10-04T19:34:23.004Z,1.75
2022-10-04T19:36:58.745Z,1.50
2022-10-04T19:39:38.388Z,1.60
2022-10-04T19:42:13.539Z,1.52
2022-10-04T19:44:53.690Z,1.83
2022-10-04T19:47:37.140Z,1.70
2022-10-04T19:50:10.965Z,1.70
2022-10-04T19:52:44.609Z,1.42
2022-10-04T19:55:26.270Z,1.58
2022-10-04T19:58:05.529Z,2.10
2022-10-04T20:00:35.711Z,1.75
2022-10-04T20:03:10.427Z,1.90
2022-10-04T20:05:44.101Z,1.67
2022-10-04T20:08:13.546Z,2.03
2022-10-04T20:10:42.203Z,1.75
2022-10-04T20:13:24.882Z,1.45
2022-10-04T20:15:55.101Z,1.63
2022-10-04T20:19:03.001Z,1.50
2022-10-04T20:21:32.042Z,1.85
2022-10-04T20:24:01.496Z,1.38
2022-10-04T20:27:04.370Z,1.63
2022-10-04T20:30:13.210Z,1.58
2022-10-04T20:33:01.033Z,1.60
2022-10-04T20:36:09.514Z,1.50
2022-10-04T20:38:55.090Z,1.60
2022-10-04T20:42:04.863Z,1.38
2022-10-04T20:44:54.490Z,1.83
2022-10-04T20:47:34.275Z,1.40
2022-10-04T20:50:03.193Z,1.50
2022-10-04T20:52:33.066Z,1.63
2022-10-04T20:55:02.868Z,1.70
2022-10-04T20:57:31.538Z,2.00
2022-10-04T20:59:59.753Z,1.30
2022-10-04T21:02:29.179Z,1.40
2022-10-04T21:05:13.404Z,1.58
2022-10-04T21:07:41.458Z,1.80
2022-10-04T21:10:18.029Z,1.50
2022-10-04T21:12:46.132Z,1.27
2022-10-04T21:15:21.981Z,1.48
2022-10-04T21:18:07.143Z,1.30
2022-10-04T21:20:46.276Z,1.50
2022-10-04T21:23:23.095Z,1.58
2022-10-04T21:25:51.550Z,1.50
2022-10-04T21:28:36.019Z,1.42
2022-10-04T21:31:05.203Z,1.52
2022-10-04T21:33:35.549Z,1.85
2022-10-04T21:36:04.189Z,1.60
2022-10-04T21:38:32.347Z,1.40
2022-10-04T21:41:00.251Z,1.45
2022-10-04T21:43:28.144Z,1.65
2022-10-04T21:45:56.116Z,1.52
2022-10-04T21:48:24.583Z,1.50
2022-10-04T21:50:55.026Z,1.50
2022-10-04T21:53:23.364Z,1.40
2022-10-04T21:55:51.534Z,1.65
2022-10-04T21:58:19.461Z,1.30
2022-10-04T22:00:47.415Z,1.40
2022-10-04T22:03:15.420Z,1.42
2022-10-04T22:05:43.332Z,1.33
2022-10-04T22:08:12.612Z,1.42
2022-10-04T22:10:40.959Z,1.80
2022-10-04T22:13:08.904Z,1.58
2022-10-04T22:15:37.137Z,1.40
2022-10-04T22:18:05.230Z,1.50
2022-10-04T22:20:33.420Z,1.27
2022-10-04T22:23:02.933Z,1.50
2022-10-04T22:25:32.270Z,1.40
2022-10-04T22:28:01.227Z,1.40
2022-10-04T22:30:31.360Z,1.60
2022-10-04T22:33:01.234Z,1.38
2022-10-04T22:35:31.948Z,1.50
2022-10-04T22:38:00.966Z,1.40
2022-10-04T22:40:30.180Z,1.55
2022-10-04T22:43:00.848Z,1.40
2022-10-04T22:45:33.358Z,1.48
2022-10-04T22:48:10.699Z,1.52
2022-10-04T22:50:39.389Z,1.35
2022-10-04T22:53:13.167Z,1.40
2022-10-04T22:55:41.493Z,1.50
2022-10-04T22:58:14.033Z,1.58
2022-10-04T23:00:42.854Z,1.45
2022-10-04T23:03:22.559Z,1.50
2022-10-04T23:05:50.553Z,1.50
2022-10-04T23:08:18.821Z,1.48
2022-10-04T23:10:47.107Z,1.65
2022-10-04T23:13:17.289Z,1.40
2022-10-04T23:15:47.215Z,1.35
2022-10-04T23:18:16.845Z,1.38
2022-10-04T23:20:45.157Z,1.48
2022-10-04T23:23:21.093Z,1.35
2022-10-04T23:25:49.177Z,1.52
2022-10-04T23:28:20.176Z,1.52
2022-10-04T23:30:57.988Z,1.38
2022-10-04T23:33:25.917Z,1.30
2022-10-04T23:35:55.733Z,1.20
2022-10-04T23:38:25.564Z,1.27
2022-10-04T23:40:53.423Z,1.42
2022-10-04T23:43:25.749Z,1.30
2022-10-04T23:45:54.630Z,1.35
2022-10-04T23:48:26.268Z,1.50
2022-10-04T23:50:56.123Z,1.30
2022-10-04T23:53:27.040Z,2.00
2022-10-04T23:55:56.424Z,1.45
2022-10-04T23:58:30.794Z,1.30
